sensor_id;sensor_type;location;lat;lon;timestamp;pressure;altitude;pressure_sealevel;temperature;humidity
72055;BME280;59936;51.490;5.436;2023-05-22T00:04:44;101355.41;;;15.70;77.69
72055;BME280;59936;51.490;5.436;2023-05-22T00:07:13;101344.16;;;15.52;75.34
72055;BME280;59936;51.490;5.436;2023-05-22T00:09:42;101348.34;;;15.55;72.73
72055;BME280;59936;51.490;5.436;2023-05-22T00:12:11;101348.34;;;15.55;72.73
72055;BME280;59936;51.490;5.436;2023-05-22T00:14:39;101338.09;;;15.50;72.96
72055;BME280;59936;51.490;5.436;2023-05-22T00:17:08;101350.03;;;15.41;75.38
72055;BME280;59936;51.490;5.436;2023-05-22T00:19:36;101343.41;;;15.44;73.05
72055;BME280;59936;51.490;5.436;2023-05-22T00:22:05;101343.41;;;15.44;73.05
72055;BME280;59936;51.490;5.436;2023-05-22T00:24:34;101345.00;;;15.38;73.39
72055;BME280;59936;51.490;5.436;2023-05-22T00:27:03;101345.00;;;15.38;73.39
72055;BME280;59936;51.490;5.436;2023-05-22T00:29:32;101347.88;;;15.36;72.94
72055;BME280;59936;51.490;5.436;2023-05-22T00:32:00;101345.19;;;15.36;72.00
72055;BME280;59936;51.490;5.436;2023-05-22T00:34:29;101340.97;;;15.34;73.12
72055;BME280;59936;51.490;5.436;2023-05-22T00:36:57;101347.69;;;15.38;71.42
72055;BME280;59936;51.490;5.436;2023-05-22T00:39:26;101347.69;;;15.38;71.42
72055;BME280;59936;51.490;5.436;2023-05-22T00:41:54;101347.03;;;15.36;71.20
72055;BME280;59936;51.490;5.436;2023-05-22T00:44:23;101341.06;;;15.26;73.87
72055;BME280;59936;51.490;5.436;2023-05-22T00:46:52;101327.47;;;15.19;74.06
72055;BME280;59936;51.490;5.436;2023-05-22T00:49:20;101334.94;;;15.17;74.31
72055;BME280;59936;51.490;5.436;2023-05-22T00:51:49;101332.22;;;15.17;72.75
72055;BME280;59936;51.490;5.436;2023-05-22T00:54:18;101332.22;;;15.17;72.75
72055;BME280;59936;51.490;5.436;2023-05-22T00:56:47;101331.56;;;15.15;72.17
72055;BME280;59936;51.490;5.436;2023-05-22T00:59:16;101329.97;;;15.06;74.33
72055;BME280;59936;51.490;5.436;2023-05-22T01:01:45;101335.09;;;15.01;74.59
72055;BME280;59936;51.490;5.436;2023-05-22T01:04:14;101336.00;;;14.93;76.53
72055;BME280;59936;51.490;5.436;2023-05-22T01:06:43;101338.69;;;14.93;73.97
72055;BME280;59936;51.490;5.436;2023-05-22T01:09:12;101342.06;;;14.95;72.67
72055;BME280;59936;51.490;5.436;2023-05-22T01:15:05;101337.56;;;14.88;74.30
72055;BME280;59936;51.490;5.436;2023-05-22T01:18:04;101334.38;;;14.84;75.38
72055;BME280;59936;51.490;5.436;2023-05-22T01:20:45;101335.59;;;14.82;74.17
72055;BME280;59936;51.490;5.436;2023-05-22T01:26:31;101335.69;;;14.74;74.22
72055;BME280;59936;51.490;5.436;2023-05-22T01:32:19;101335.53;;;14.67;74.98
72055;BME280;59936;51.490;5.436;2023-05-22T01:34:52;101335.53;;;14.67;74.98
72055;BME280;59936;51.490;5.436;2023-05-22T01:37:23;101333.00;;;14.65;74.37
72055;BME280;59936;51.490;5.436;2023-05-22T01:39:53;101330.66;;;14.62;74.34
72055;BME280;59936;51.490;5.436;2023-05-22T01:42:23;101323.13;;;14.58;74.91
72055;BME280;59936;51.490;5.436;2023-05-22T01:44:52;101331.59;;;14.55;75.38
72055;BME280;59936;51.490;5.436;2023-05-22T01:47:20;101329.78;;;14.47;77.19
72055;BME280;59936;51.490;5.436;2023-05-22T01:49:49;101329.78;;;14.47;77.19
72055;BME280;59936;51.490;5.436;2023-05-22T01:52:25;101326.59;;;14.44;75.00
72055;BME280;59936;51.490;5.436;2023-05-22T01:55:16;101330.50;;;14.41;75.76
72055;BME280;59936;51.490;5.436;2023-05-22T01:57:56;101331.50;;;14.40;74.09
72055;BME280;59936;51.490;5.436;2023-05-22T02:00:31;101332.41;;;14.32;78.00
72055;BME280;59936;51.490;5.436;2023-05-22T02:03:05;101325.03;;;14.26;78.08
72055;BME280;59936;51.490;5.436;2023-05-22T02:05:37;101318.63;;;14.27;75.89
72055;BME280;59936;51.490;5.436;2023-05-22T02:08:07;101334.28;;;14.32;74.78
72055;BME280;59936;51.490;5.436;2023-05-22T02:10:39;101334.28;;;14.32;74.78
72055;BME280;59936;51.490;5.436;2023-05-22T02:13:09;101330.25;;;14.28;75.00
72055;BME280;59936;51.490;5.436;2023-05-22T02:15:40;101325.41;;;14.23;76.34
72055;BME280;59936;51.490;5.436;2023-05-22T02:18:12;101325.41;;;14.23;76.34
72055;BME280;59936;51.490;5.436;2023-05-22T02:20:40;101324.41;;;14.16;76.89
72055;BME280;59936;51.490;5.436;2023-05-22T02:23:09;101326.47;;;14.14;76.68
72055;BME280;59936;51.490;5.436;2023-05-22T02:25:37;101318.41;;;14.14;76.08
72055;BME280;59936;51.490;5.436;2023-05-22T02:28:06;101318.41;;;14.14;76.08
72055;BME280;59936;51.490;5.436;2023-05-22T02:30:34;101322.09;;;14.13;75.34
72055;BME280;59936;51.490;5.436;2023-05-22T02:33:03;101322.09;;;14.13;75.34
72055;BME280;59936;51.490;5.436;2023-05-22T02:35:32;101318.75;;;14.11;75.56
72055;BME280;59936;51.490;5.436;2023-05-22T02:38:00;101318.75;;;14.11;75.56
72055;BME280;59936;51.490;5.436;2023-05-22T02:40:29;101310.34;;;14.06;76.39
72055;BME280;59936;51.490;5.436;2023-05-22T02:43:03;101310.34;;;14.06;76.39
72055;BME280;59936;51.490;5.436;2023-05-22T02:45:37;101308.50;;;14.07;74.72
72055;BME280;59936;51.490;5.436;2023-05-22T02:48:11;101311.69;;;14.10;74.50
72055;BME280;59936;51.490;5.436;2023-05-22T02:50:44;101303.63;;;14.02;77.56
72055;BME280;59936;51.490;5.436;2023-05-22T02:53:16;101299.56;;;14.06;75.01
72055;BME280;59936;51.490;5.436;2023-05-22T02:55:48;101308.81;;;14.12;74.26
72055;BME280;59936;51.490;5.436;2023-05-22T02:58:17;101296.84;;;14.14;74.01
72055;BME280;59936;51.490;5.436;2023-05-22T03:00:51;101296.44;;;14.17;74.02
72055;BME280;59936;51.490;5.436;2023-05-22T03:03:25;101301.31;;;14.22;73.76
72055;BME280;59936;51.490;5.436;2023-05-22T03:05:57;101296.16;;;14.12;77.53
72055;BME280;59936;51.490;5.436;2023-05-22T03:08:27;101299.69;;;14.13;76.60
72055;BME280;59936;51.490;5.436;2023-05-22T03:11:00;101296.84;;;14.14;76.13
72055;BME280;59936;51.490;5.436;2023-05-22T03:13:32;101291.44;;;14.14;75.98
72055;BME280;59936;51.490;5.436;2023-05-22T03:16:01;101290.81;;;14.04;78.18
72055;BME280;59936;51.490;5.436;2023-05-22T03:18:30;101304.66;;;14.01;76.48
72055;BME280;59936;51.490;5.436;2023-05-22T03:20:58;101304.66;;;14.01;76.48
72055;BME280;59936;51.490;5.436;2023-05-22T03:23:27;101289.00;;;13.96;76.30
72055;BME280;59936;51.490;5.436;2023-05-22T03:25:55;101292.59;;;13.89;77.14
72055;BME280;59936;51.490;5.436;2023-05-22T03:28:24;101292.59;;;13.89;77.14
72055;BME280;59936;51.490;5.436;2023-05-22T03:30:52;101284.38;;;13.82;77.57
72055;BME280;59936;51.490;5.436;2023-05-22T03:33:21;101283.72;;;13.80;77.24
72055;BME280;59936;51.490;5.436;2023-05-22T03:35:50;101291.31;;;13.77;77.88
72055;BME280;59936;51.490;5.436;2023-05-22T03:38:22;101291.31;;;13.77;77.88
72055;BME280;59936;51.490;5.436;2023-05-22T03:40:51;101288.44;;;13.78;75.46
72055;BME280;59936;51.490;5.436;2023-05-22T03:43:19;101287.44;;;13.79;74.75
72055;BME280;59936;51.490;5.436;2023-05-22T03:45:48;101287.44;;;13.79;74.75
72055;BME280;59936;51.490;5.436;2023-05-22T03:48:17;101281.19;;;13.79;74.50
72055;BME280;59936;51.490;5.436;2023-05-22T03:50:45;101291.19;;;13.70;77.54
72055;BME280;59936;51.490;5.436;2023-05-22T03:53:14;101292.22;;;13.69;76.33
72055;BME280;59936;51.490;5.436;2023-05-22T03:55:42;101288.69;;;13.60;78.63
72055;BME280;59936;51.490;5.436;2023-05-22T03:58:11;101284.69;;;13.56;78.27
72055;BME280;59936;51.490;5.436;2023-05-22T04:00:39;101288.88;;;13.59;76.73
72055;BME280;59936;51.490;5.436;2023-05-22T04:03:08;101289.72;;;13.59;77.82
72055;BME280;59936;51.490;5.436;2023-05-22T04:05:40;101289.72;;;13.59;77.82
72055;BME280;59936;51.490;5.436;2023-05-22T04:08:08;101280.00;;;13.50;78.43
72055;BME280;59936;51.490;5.436;2023-05-22T04:10:37;101281.31;;;13.54;78.02
72055;BME280;59936;51.490;5.436;2023-05-22T04:13:05;101283.84;;;13.56;76.78
72055;BME280;59936;51.490;5.436;2023-05-22T04:15:34;101283.66;;;13.57;77.20
72055;BME280;59936;51.490;5.436;2023-05-22T04:18:03;101285.69;;;13.55;77.83
72055;BME280;59936;51.490;5.436;2023-05-22T04:20:31;101286.84;;;13.61;75.66
72055;BME280;59936;51.490;5.436;2023-05-22T04:23:00;101295.78;;;13.61;77.34
72055;BME280;59936;51.490;5.436;2023-05-22T04:25:28;101302.16;;;13.68;75.78
72055;BME280;59936;51.490;5.436;2023-05-22T04:27:57;101302.16;;;13.68;75.78
72055;BME280;59936;51.490;5.436;2023-05-22T04:30:25;101292.38;;;13.67;75.61
72055;BME280;59936;51.490;5.436;2023-05-22T04:32:54;101304.50;;;13.72;76.84
72055;BME280;59936;51.490;5.436;2023-05-22T04:35:27;101304.50;;;13.72;76.84
72055;BME280;59936;51.490;5.436;2023-05-22T04:37:57;101305.31;;;13.72;77.29
72055;BME280;59936;51.490;5.436;2023-05-22T04:40:27;101306.97;;;13.73;78.30
72055;BME280;59936;51.490;5.436;2023-05-22T04:42:57;101311.19;;;13.76;79.00
72055;BME280;59936;51.490;5.436;2023-05-22T04:45:26;101320.94;;;13.77;79.08
72055;BME280;59936;51.490;5.436;2023-05-22T04:47:55;101313.88;;;13.76;79.96
72055;BME280;59936;51.490;5.436;2023-05-22T04:50:24;101320.75;;;13.86;79.39
72055;BME280;59936;51.490;5.436;2023-05-22T04:52:52;101320.75;;;13.86;79.39
72055;BME280;59936;51.490;5.436;2023-05-22T04:55:21;101307.75;;;13.90;78.88
72055;BME280;59936;51.490;5.436;2023-05-22T04:57:49;101308.41;;;13.92;79.63
72055;BME280;59936;51.490;5.436;2023-05-22T05:00:18;101317.53;;;13.91;80.01
72055;BME280;59936;51.490;5.436;2023-05-22T05:02:47;101314.09;;;13.97;79.79
72055;BME280;59936;51.490;5.436;2023-05-22T05:05:20;101311.72;;;14.02;79.31
72055;BME280;59936;51.490;5.436;2023-05-22T05:07:48;101323.78;;;14.14;77.68
72055;BME280;59936;51.490;5.436;2023-05-22T05:10:17;101331.81;;;14.22;76.42
72055;BME280;59936;51.490;5.436;2023-05-22T05:12:46;101332.91;;;14.36;77.19
72055;BME280;59936;51.490;5.436;2023-05-22T05:15:14;101332.91;;;14.36;77.19
72055;BME280;59936;51.490;5.436;2023-05-22T05:17:43;101327.97;;;14.40;76.32
72055;BME280;59936;51.490;5.436;2023-05-22T05:20:12;101332.81;;;14.44;75.75
72055;BME280;59936;51.490;5.436;2023-05-22T05:22:40;101338.88;;;14.46;76.48
72055;BME280;59936;51.490;5.436;2023-05-22T05:25:09;101340.25;;;14.42;77.95
72055;BME280;59936;51.490;5.436;2023-05-22T05:27:37;101343.78;;;14.43;78.53
72055;BME280;59936;51.490;5.436;2023-05-22T05:30:06;101348.16;;;14.44;78.55
72055;BME280;59936;51.490;5.436;2023-05-22T05:32:35;101341.41;;;14.48;77.20
72055;BME280;59936;51.490;5.436;2023-05-22T05:35:05;101334.56;;;14.60;75.97
72055;BME280;59936;51.490;5.436;2023-05-22T05:37:34;101340.06;;;14.66;77.27
72055;BME280;59936;51.490;5.436;2023-05-22T05:40:03;101336.63;;;14.58;78.90
72055;BME280;59936;51.490;5.436;2023-05-22T05:42:32;101340.56;;;14.70;76.73
72055;BME280;59936;51.490;5.436;2023-05-22T05:45:01;101340.56;;;14.70;76.73
72055;BME280;59936;51.490;5.436;2023-05-22T05:47:29;101321.34;;;14.73;77.75
72055;BME280;59936;51.490;5.436;2023-05-22T05:49:58;101336.44;;;14.82;76.71
72055;BME280;59936;51.490;5.436;2023-05-22T05:52:26;101337.59;;;15.02;76.71
72055;BME280;59936;51.490;5.436;2023-05-22T05:54:55;101337.78;;;15.01;76.11
72055;BME280;59936;51.490;5.436;2023-05-22T05:57:23;101337.78;;;15.01;76.11
72055;BME280;59936;51.490;5.436;2023-05-22T05:59:52;101347.28;;;15.12;76.85
72055;BME280;59936;51.490;5.436;2023-05-22T06:02:20;101339.19;;;15.12;76.17
72055;BME280;59936;51.490;5.436;2023-05-22T06:04:49;101339.19;;;15.12;76.17
72055;BME280;59936;51.490;5.436;2023-05-22T06:07:18;101334.75;;;15.19;75.80
72055;BME280;59936;51.490;5.436;2023-05-22T06:09:46;101331.28;;;15.25;75.35
72055;BME280;59936;51.490;5.436;2023-05-22T06:12:15;101340.97;;;15.34;74.98
72055;BME280;59936;51.490;5.436;2023-05-22T06:14:43;101341.44;;;15.52;75.44
72055;BME280;59936;51.490;5.436;2023-05-22T06:17:12;101341.44;;;15.52;75.44
72055;BME280;59936;51.490;5.436;2023-05-22T06:19:41;101344.34;;;15.65;74.98
72055;BME280;59936;51.490;5.436;2023-05-22T06:22:09;101338.34;;;15.70;75.60
72055;BME280;59936;51.490;5.436;2023-05-22T06:24:38;101343.28;;;15.81;74.44
72055;BME280;59936;51.490;5.436;2023-05-22T06:27:06;101342.59;;;15.87;74.43
72055;BME280;59936;51.490;5.436;2023-05-22T06:29:35;101348.59;;;15.89;74.64
72055;BME280;59936;51.490;5.436;2023-05-22T06:32:04;101356.16;;;15.94;74.88
72055;BME280;59936;51.490;5.436;2023-05-22T06:34:33;101356.16;;;15.94;74.88
72055;BME280;59936;51.490;5.436;2023-05-22T06:37:02;101357.28;;;15.99;74.71
72055;BME280;59936;51.490;5.436;2023-05-22T06:39:31;101363.09;;;16.18;74.42
72055;BME280;59936;51.490;5.436;2023-05-22T06:41:59;101361.03;;;16.20;74.53
72055;BME280;59936;51.490;5.436;2023-05-22T06:44:28;101361.03;;;16.20;74.53
72055;BME280;59936;51.490;5.436;2023-05-22T06:46:57;101359.56;;;16.17;74.46
72055;BME280;59936;51.490;5.436;2023-05-22T06:49:25;101355.34;;;16.29;73.77
72055;BME280;59936;51.490;5.436;2023-05-22T06:51:54;101356.22;;;16.36;74.01
72055;BME280;59936;51.490;5.436;2023-05-22T06:54:22;101364.50;;;16.28;74.46
72055;BME280;59936;51.490;5.436;2023-05-22T06:56:51;101368.03;;;16.29;74.53
72055;BME280;59936;51.490;5.436;2023-05-22T06:59:19;101374.66;;;16.12;75.89
72055;BME280;59936;51.490;5.436;2023-05-22T07:01:48;101374.66;;;16.12;75.89
72055;BME280;59936;51.490;5.436;2023-05-22T07:04:17;101375.06;;;16.09;75.50
72055;BME280;59936;51.490;5.436;2023-05-22T07:06:45;101386.41;;;16.19;74.89
72055;BME280;59936;51.490;5.436;2023-05-22T07:09:14;101393.50;;;16.20;75.29
72055;BME280;59936;51.490;5.436;2023-05-22T07:11:42;101396.63;;;16.38;74.76
72055;BME280;59936;51.490;5.436;2023-05-22T07:14:11;101396.63;;;16.38;74.76
72055;BME280;59936;51.490;5.436;2023-05-22T07:16:40;101388.59;;;16.45;74.55
72055;BME280;59936;51.490;5.436;2023-05-22T07:19:09;101395.72;;;16.31;74.87
72055;BME280;59936;51.490;5.436;2023-05-22T07:21:37;101399.03;;;16.33;74.49
72055;BME280;59936;51.490;5.436;2023-05-22T07:24:06;101399.03;;;16.33;74.49
72055;BME280;59936;51.490;5.436;2023-05-22T07:26:35;101394.97;;;16.22;74.75
72055;BME280;59936;51.490;5.436;2023-05-22T07:29:04;101404.28;;;16.34;74.25
72055;BME280;59936;51.490;5.436;2023-05-22T07:31:33;101404.28;;;16.34;74.25
72055;BME280;59936;51.490;5.436;2023-05-22T07:34:02;101399.88;;;16.33;74.45
72055;BME280;59936;51.490;5.436;2023-05-22T07:36:30;101402.41;;;16.35;73.78
72055;BME280;59936;51.490;5.436;2023-05-22T07:38:59;101408.28;;;16.38;73.97
72055;BME280;59936;51.490;5.436;2023-05-22T07:41:27;101413.22;;;16.71;73.64
72055;BME280;59936;51.490;5.436;2023-05-22T07:43:56;101411.72;;;16.90;73.12
72055;BME280;59936;51.490;5.436;2023-05-22T07:46:25;101411.72;;;16.90;73.12
72055;BME280;59936;51.490;5.436;2023-05-22T07:48:53;101412.25;;;17.00;72.94
72055;BME280;59936;51.490;5.436;2023-05-22T07:51:22;101409.09;;;17.18;72.73
72055;BME280;59936;51.490;5.436;2023-05-22T07:53:50;101411.66;;;17.26;72.49
72055;BME280;59936;51.490;5.436;2023-05-22T07:56:20;101418.47;;;17.22;72.71
72055;BME280;59936;51.490;5.436;2023-05-22T07:58:49;101414.72;;;16.95;73.88
72055;BME280;59936;51.490;5.436;2023-05-22T08:01:18;101410.00;;;17.03;73.64
72055;BME280;59936;51.490;5.436;2023-05-22T08:03:46;101412.66;;;17.18;73.07
72055;BME280;59936;51.490;5.436;2023-05-22T08:06:15;101410.81;;;17.25;73.36
72055;BME280;59936;51.490;5.436;2023-05-22T08:08:43;101419.09;;;17.45;72.87
72055;BME280;59936;51.490;5.436;2023-05-22T08:11:12;101413.06;;;17.50;72.94
72055;BME280;59936;51.490;5.436;2023-05-22T08:13:40;101416.09;;;17.61;72.55
72055;BME280;59936;51.490;5.436;2023-05-22T08:16:09;101405.75;;;17.78;72.29
72055;BME280;59936;51.490;5.436;2023-05-22T08:18:38;101405.16;;;17.83;72.32
72055;BME280;59936;51.490;5.436;2023-05-22T08:21:07;101406.72;;;17.98;71.87
72055;BME280;59936;51.490;5.436;2023-05-22T08:23:35;101407.63;;;18.12;71.46
72055;BME280;59936;51.490;5.436;2023-05-22T08:26:05;101399.94;;;18.22;71.78
72055;BME280;59936;51.490;5.436;2023-05-22T08:28:34;101405.81;;;18.32;71.45
72055;BME280;59936;51.490;5.436;2023-05-22T08:31:02;101415.41;;;18.35;71.19
72055;BME280;59936;51.490;5.436;2023-05-22T08:33:31;101415.41;;;18.35;71.19
72055;BME280;59936;51.490;5.436;2023-05-22T08:35:59;101411.94;;;18.54;71.35
72055;BME280;59936;51.490;5.436;2023-05-22T08:38:28;101414.06;;;18.65;71.07
72055;BME280;59936;51.490;5.436;2023-05-22T08:40:57;101414.06;;;18.65;71.07
72055;BME280;59936;51.490;5.436;2023-05-22T08:43:26;101402.19;;;18.93;70.72
72055;BME280;59936;51.490;5.436;2023-05-22T08:46:04;101398.88;;;19.24;69.99
72055;BME280;59936;51.490;5.436;2023-05-22T08:48:33;101400.97;;;19.22;69.47
72055;BME280;59936;51.490;5.436;2023-05-22T08:51:03;101398.88;;;19.24;69.63
72055;BME280;59936;51.490;5.436;2023-05-22T08:53:34;101405.34;;;19.23;69.75
72055;BME280;59936;51.490;5.436;2023-05-22T08:56:05;101402.44;;;19.24;69.68
72055;BME280;59936;51.490;5.436;2023-05-22T08:58:36;101401.19;;;19.27;69.63
72055;BME280;59936;51.490;5.436;2023-05-22T09:01:05;101402.03;;;19.34;69.23
72055;BME280;59936;51.490;5.436;2023-05-22T09:03:34;101409.94;;;19.42;69.00
72055;BME280;59936;51.490;5.436;2023-05-22T09:06:03;101399.66;;;19.64;69.10
72055;BME280;59936;51.490;5.436;2023-05-22T09:08:32;101405.03;;;19.97;68.44
72055;BME280;59936;51.490;5.436;2023-05-22T09:11:01;101405.03;;;19.97;68.44
72055;BME280;59936;51.490;5.436;2023-05-22T09:13:30;101401.59;;;20.21;67.69
72055;BME280;59936;51.490;5.436;2023-05-22T09:16:11;101400.25;;;20.37;67.32
72055;BME280;59936;51.490;5.436;2023-05-22T09:18:41;101403.25;;;20.67;66.90
72055;BME280;59936;51.490;5.436;2023-05-22T09:21:11;101396.63;;;21.12;66.17
72055;BME280;59936;51.490;5.436;2023-05-22T09:23:39;101399.94;;;21.64;65.36
72055;BME280;59936;51.490;5.436;2023-05-22T09:26:08;101399.94;;;21.64;65.36
72055;BME280;59936;51.490;5.436;2023-05-22T09:28:37;101399.41;;;21.74;63.95
72055;BME280;59936;51.490;5.436;2023-05-22T09:31:05;101401.91;;;21.57;64.31
72055;BME280;59936;51.490;5.436;2023-05-22T09:33:35;101391.81;;;21.58;64.63
72055;BME280;59936;51.490;5.436;2023-05-22T09:36:07;101396.06;;;21.54;64.40
72055;BME280;59936;51.490;5.436;2023-05-22T09:38:36;101396.06;;;21.54;64.40
72055;BME280;59936;51.490;5.436;2023-05-22T09:41:12;101389.81;;;21.90;64.07
72055;BME280;59936;51.490;5.436;2023-05-22T09:43:48;101394.41;;;22.07;62.45
72055;BME280;59936;51.490;5.436;2023-05-22T09:46:17;101397.59;;;21.68;62.91
72055;BME280;59936;51.490;5.436;2023-05-22T09:48:50;101397.59;;;21.68;62.91
72055;BME280;59936;51.490;5.436;2023-05-22T09:51:23;101383.97;;;21.86;62.71
72055;BME280;59936;51.490;5.436;2023-05-22T09:54:02;101384.75;;;22.41;62.17
72055;BME280;59936;51.490;5.436;2023-05-22T09:56:34;101386.88;;;23.23;59.44
72055;BME280;59936;51.490;5.436;2023-05-22T09:59:04;101387.44;;;23.13;60.75
72055;BME280;59936;51.490;5.436;2023-05-22T10:01:37;101382.84;;;22.83;61.29
72055;BME280;59936;51.490;5.436;2023-05-22T10:04:10;101382.38;;;22.75;60.35
72055;BME280;59936;51.490;5.436;2023-05-22T10:06:41;101385.81;;;22.82;60.91
72055;BME280;59936;51.490;5.436;2023-05-22T10:09:16;101382.78;;;23.02;61.14
72055;BME280;59936;51.490;5.436;2023-05-22T10:11:52;101376.47;;;23.71;59.96
72055;BME280;59936;51.490;5.436;2023-05-22T10:14:24;101370.69;;;24.19;58.34
72055;BME280;59936;51.490;5.436;2023-05-22T10:16:53;101381.25;;;23.76;58.81
72055;BME280;59936;51.490;5.436;2023-05-22T10:19:23;101383.66;;;23.84;59.01
72055;BME280;59936;51.490;5.436;2023-05-22T10:21:53;101373.91;;;24.45;58.78
72055;BME280;59936;51.490;5.436;2023-05-22T10:24:23;101378.00;;;25.04;56.85
72055;BME280;59936;51.490;5.436;2023-05-22T10:26:53;101383.97;;;24.68;57.37
72055;BME280;59936;51.490;5.436;2023-05-22T10:33:20;101374.56;;;24.64;53.33
72055;BME280;59936;51.490;5.436;2023-05-22T10:36:02;101367.78;;;24.83;56.84
72055;BME280;59936;51.490;5.436;2023-05-22T10:42:00;101363.13;;;25.00;53.42
72055;BME280;59936;51.490;5.436;2023-05-22T10:44:29;101361.66;;;25.26;55.99
72055;BME280;59936;51.490;5.436;2023-05-22T10:47:07;101363.69;;;25.52;56.60
72055;BME280;59936;51.490;5.436;2023-05-22T10:49:42;101354.50;;;25.64;55.28
72055;BME280;59936;51.490;5.436;2023-05-22T10:52:11;101351.50;;;25.87;55.63
72055;BME280;59936;51.490;5.436;2023-05-22T10:54:44;101351.91;;;26.17;54.87
72055;BME280;59936;51.490;5.436;2023-05-22T10:57:14;101350.41;;;26.32;52.38
72055;BME280;59936;51.490;5.436;2023-05-22T10:59:46;101350.00;;;26.45;53.64
72055;BME280;59936;51.490;5.436;2023-05-22T11:02:19;101350.97;;;26.34;54.60
72055;BME280;59936;51.490;5.436;2023-05-22T11:04:49;101355.63;;;25.84;53.75
72055;BME280;59936;51.490;5.436;2023-05-22T11:07:17;101347.31;;;25.24;55.17
72055;BME280;59936;51.490;5.436;2023-05-22T11:09:46;101345.78;;;25.28;55.08
72055;BME280;59936;51.490;5.436;2023-05-22T11:12:25;101345.44;;;25.08;54.96
72055;BME280;59936;51.490;5.436;2023-05-22T11:17:46;101332.66;;;25.52;54.45
72055;BME280;59936;51.490;5.436;2023-05-22T11:20:22;101340.94;;;25.96;52.57
72055;BME280;59936;51.490;5.436;2023-05-22T11:23:00;101342.84;;;25.95;53.18
72055;BME280;59936;51.490;5.436;2023-05-22T11:25:33;101333.66;;;25.84;52.69
72055;BME280;59936;51.490;5.436;2023-05-22T11:28:03;101335.56;;;26.28;52.67
72055;BME280;59936;51.490;5.436;2023-05-22T11:30:35;101331.50;;;26.62;51.80
72055;BME280;59936;51.490;5.436;2023-05-22T11:33:04;101338.25;;;26.49;51.73
72055;BME280;59936;51.490;5.436;2023-05-22T11:35:33;101337.66;;;25.77;52.52
72055;BME280;59936;51.490;5.436;2023-05-22T11:38:04;101337.19;;;25.41;53.30
72055;BME280;59936;51.490;5.436;2023-05-22T11:40:32;101340.72;;;26.24;52.21
72055;BME280;59936;51.490;5.436;2023-05-22T11:43:01;101340.72;;;26.24;52.21
72055;BME280;59936;51.490;5.436;2023-05-22T11:45:29;101336.91;;;26.25;51.80
72055;BME280;59936;51.490;5.436;2023-05-22T11:47:58;101332.63;;;26.39;51.67
72055;BME280;59936;51.490;5.436;2023-05-22T11:50:27;101337.84;;;25.92;52.22
72055;BME280;59936;51.490;5.436;2023-05-22T11:52:56;101342.34;;;25.38;53.20
72055;BME280;59936;51.490;5.436;2023-05-22T11:55:25;101333.56;;;25.19;53.42
72055;BME280;59936;51.490;5.436;2023-05-22T11:57:54;101336.13;;;25.26;53.27
72055;BME280;59936;51.490;5.436;2023-05-22T12:00:22;101324.03;;;25.43;53.02
72055;BME280;59936;51.490;5.436;2023-05-22T12:02:51;101326.94;;;25.75;52.28
72055;BME280;59936;51.490;5.436;2023-05-22T12:05:20;101326.94;;;25.75;52.28
72055;BME280;59936;51.490;5.436;2023-05-22T12:07:49;101315.97;;;25.75;51.91
72055;BME280;59936;51.490;5.436;2023-05-22T12:10:17;101317.63;;;25.76;52.13
72055;BME280;59936;51.490;5.436;2023-05-22T12:12:46;101327.81;;;25.37;52.94
72055;BME280;59936;51.490;5.436;2023-05-22T12:15:18;101314.47;;;25.46;53.09
72055;BME280;59936;51.490;5.436;2023-05-22T12:17:46;101314.28;;;25.52;52.77
72055;BME280;59936;51.490;5.436;2023-05-22T12:20:15;101316.59;;;25.61;53.01
72055;BME280;59936;51.490;5.436;2023-05-22T12:22:43;101313.06;;;25.43;53.12
72055;BME280;59936;51.490;5.436;2023-05-22T12:25:15;101317.84;;;25.31;53.44
72055;BME280;59936;51.490;5.436;2023-05-22T12:27:44;101315.19;;;25.36;53.25
72055;BME280;59936;51.490;5.436;2023-05-22T12:30:13;101313.53;;;25.79;52.58
72055;BME280;59936;51.490;5.436;2023-05-22T12:32:46;101322.22;;;25.92;52.32
72055;BME280;59936;51.490;5.436;2023-05-22T12:35:16;101317.19;;;25.63;52.60
72055;BME280;59936;51.490;5.436;2023-05-22T12:37:49;101316.75;;;25.15;53.49
72055;BME280;59936;51.490;5.436;2023-05-22T12:40:18;101310.13;;;25.11;53.85
72055;BME280;59936;51.490;5.436;2023-05-22T12:42:47;101309.84;;;25.30;53.73
72055;BME280;59936;51.490;5.436;2023-05-22T12:45:17;101323.66;;;25.18;53.63
72055;BME280;59936;51.490;5.436;2023-05-22T12:47:46;101328.06;;;25.02;53.87
72055;BME280;59936;51.490;5.436;2023-05-22T12:50:15;101323.91;;;24.83;54.09
72055;BME280;59936;51.490;5.436;2023-05-22T12:52:43;101319.03;;;24.85;54.30
72055;BME280;59936;51.490;5.436;2023-05-22T12:55:12;101323.19;;;24.71;54.09
72055;BME280;59936;51.490;5.436;2023-05-22T12:57:40;101323.00;;;24.61;54.43
72055;BME280;59936;51.490;5.436;2023-05-22T13:00:09;101315.69;;;24.83;53.95
72055;BME280;59936;51.490;5.436;2023-05-22T13:02:38;101305.13;;;25.08;53.53
72055;BME280;59936;51.490;5.436;2023-05-22T13:05:07;101309.78;;;25.08;53.41
72055;BME280;59936;51.490;5.436;2023-05-22T13:07:36;101306.19;;;25.24;53.24
72055;BME280;59936;51.490;5.436;2023-05-22T13:10:05;101307.56;;;24.54;54.11
72055;BME280;59936;51.490;5.436;2023-05-22T13:12:35;101307.56;;;24.54;54.11
72055;BME280;59936;51.490;5.436;2023-05-22T13:15:04;101300.16;;;24.55;54.42
72055;BME280;59936;51.490;5.436;2023-05-22T13:17:33;101296.84;;;24.86;54.01
72055;BME280;59936;51.490;5.436;2023-05-22T13:20:02;101297.47;;;25.10;53.47
72055;BME280;59936;51.490;5.436;2023-05-22T13:22:30;101301.56;;;25.08;53.48
72055;BME280;59936;51.490;5.436;2023-05-22T13:24:59;101304.00;;;24.71;53.84
72055;BME280;59936;51.490;5.436;2023-05-22T13:27:28;101296.75;;;24.65;53.98